Time;durP1;ratioP1;P1;durP2;ratioP2;P2;SDS_P1;SDS_P2;PMS_P1;PMS_P2;Temp;Humidity;BMP_temperature;BMP_pressure;BME280_temperature;BME280_humidity;BME280_pressure;Samples;Min_cycle;Max_cycle;Signal;HPM_P1;HPM_P2
2023/05/02 00:00:35;;;;;;;;;;;;;;;22.47;55.95;99234.50;7315085;19;129646;-38
2023/05/02 00:03:01;;;;;;;;;;;;;;;22.49;55.65;99239.59;7315319;19;129256;-38
2023/05/02 00:05:26;;;;;;;;;;;;;;;22.48;55.86;99233.50;7313315;19;130272;-37
2023/05/02 00:07:52;;;;;;;;;;;;;;;22.49;55.94;99235.16;7314380;19;130387;-39
2023/05/02 00:10:17;;;;;;;;;;;;;;;21.69;51.87;99245.75;7311060;19;129013;-41
2023/05/02 00:12:43;;;;;;;;;;;;;;;21.61;52.12;99247.47;7312145;19;129316;-39
2023/05/02 00:15:09;;;;;;;;;;;;;;;21.59;51.15;99244.16;7314965;19;129480;-39
2023/05/02 00:17:34;;;;;;;;;;;;;;;21.91;53.19;99250.56;7313512;19;130401;-38
2023/05/02 00:20:00;;;;;;;;;;;;;;;22.01;54.89;99254.91;7313745;19;129201;-38
2023/05/02 00:22:25;;;;;;;;;;;;;;;22.13;54.86;99258.97;7312888;19;129557;-39
2023/05/02 00:24:54;;;;;;;;;;;;;;;22.24;54.83;99258.72;7314562;19;129908;-38
2023/05/02 00:27:20;;;;;;;;;;;;;;;22.27;55.37;99255.78;7312321;19;130439;-41
2023/05/02 00:29:46;;;;;;;;;;;;;;;22.34;55.00;99252.41;7312209;19;129179;-38
2023/05/02 00:32:11;;;;;;;;;;;;;;;22.35;55.03;99247.97;7311804;19;129674;-38
2023/05/02 00:34:37;;;;;;;;;;;;;;;22.41;55.54;99252.63;7314576;19;130250;-38
2023/05/02 00:37:02;;;;;;;;;;;;;;;22.41;55.11;99257.88;7312685;19;130099;-42
2023/05/02 00:39:27;;;;;;;;;;;;;;;22.43;54.92;99258.53;7313502;19;129351;-40
2023/05/02 00:41:56;;;;;;;;;;;;;;;22.35;55.10;99247.97;7311968;19;129092;-39
2023/05/02 00:44:22;;;;;;;;;;;;;;;22.48;55.73;99264.13;7312819;19;130306;-39
2023/05/02 00:46:47;;;;;;;;;;;;;;;22.50;55.66;99264.78;7313495;19;130530;-39
2023/05/02 00:49:12;;;;;;;;;;;;;;;22.51;55.22;99258.59;7312549;19;129276;-38
2023/05/02 00:51:38;;;;;;;;;;;;;;;22.51;55.65;99258.59;7311955;19;129191;-39
2023/05/02 00:54:04;;;;;;;;;;;;;;;21.96;51.98;99250.13;7314379;19;130203;-39
2023/05/02 00:56:29;;;;;;;;;;;;;;;21.65;51.55;99264.53;7312554;19;131353;-37
2023/05/02 00:58:58;;;;;;;;;;;;;;;21.63;51.83;99266.47;7310234;19;128979;-41
2023/05/02 01:01:36;;;;;;;;;;;;;;;21.62;51.40;99263.00;7310304;19;129508;-39
2023/05/02 01:04:02;;;;;;;;;;;;;;;21.93;54.72;99268.75;7313490;19;130045;-44
2023/05/02 01:06:39;;;;;;;;;;;;;;;22.13;55.13;99269.44;7312465;19;129634;-43
2023/05/02 01:09:05;;;;;;;;;;;;;;;22.22;54.92;99253.63;7311812;19;129577;-37
2023/05/02 01:11:33;;;;;;;;;;;;;;;22.29;55.35;99259.06;7310951;19;128808;-39
2023/05/02 01:14:00;;;;;;;;;;;;;;;22.31;55.40;99259.75;7312504;19;129731;-41
2023/05/02 01:16:27;;;;;;;;;;;;;;;22.37;55.29;99251.28;7312358;19;130508;-40
2023/05/02 01:18:53;;;;;;;;;;;;;;;22.40;55.07;99250.97;7313245;19;129496;-39
2023/05/02 01:21:18;;;;;;;;;;;;;;;22.37;54.83;99244.25;7310111;19;129529;-43
2023/05/02 01:24:01;;;;;;;;;;;;;;;22.42;55.64;99246.41;7312567;19;130027;-42
2023/05/02 01:26:44;;;;;;;;;;;;;;;22.45;55.37;99244.31;7311511;19;130649;-39
2023/05/02 01:29:13;;;;;;;;;;;;;;;22.50;55.11;99249.91;7311866;19;130160;-41
2023/05/02 01:31:40;;;;;;;;;;;;;;;22.49;55.35;99244.81;7310795;19;129156;-41
2023/05/02 01:34:08;;;;;;;;;;;;;;;22.52;55.72;99255.81;7312797;19;130094;-38
2023/05/02 01:36:35;;;;;;;;;;;;;;;22.52;54.88;99249.75;7310704;19;130256;-38
2023/05/02 01:39:01;;;;;;;;;;;;;;;22.53;55.67;99257.47;7311158;19;129557;-39
2023/05/02 01:41:28;;;;;;;;;;;;;;;21.82;51.61;99246.25;7310373;19;129141;-40
2023/05/02 01:43:56;;;;;;;;;;;;;;;21.62;51.50;99249.94;7311735;19;130248;-39
2023/05/02 01:46:21;;;;;;;;;;;;;;;21.58;51.46;99253.84;7310746;19;130643;-39
2023/05/02 01:48:48;;;;;;;;;;;;;;;21.69;51.87;99256.22;7310555;19;128867;-41
2023/05/02 01:51:14;;;;;;;;;;;;;;;21.93;54.53;99250.44;7310797;19;129073;-39
2023/05/02 01:53:39;;;;;;;;;;;;;;;22.02;55.17;99238.22;7311505;19;130650;-38
2023/05/02 01:56:06;;;;;;;;;;;;;;;22.22;54.59;99247.56;7306415;19;130441;-40
2023/05/02 01:58:32;;;;;;;;;;;;;;;22.31;55.34;99242.25;7311137;19;129025;-40
2023/05/02 02:00:58;;;;;;;;;;;;;;;22.38;55.30;99250.31;7309074;19;129374;-43
2023/05/02 02:03:24;;;;;;;;;;;;;;;22.42;54.96;99244.63;7307765;19;130335;-39
2023/05/02 02:05:51;;;;;;;;;;;;;;;22.46;54.74;99250.38;7309713;19;131047;-39
2023/05/02 02:08:17;;;;;;;;;;;;;;;22.47;55.28;99246.75;7311554;19;129238;-40
2023/05/02 02:10:45;;;;;;;;;;;;;;;22.49;54.75;99244.81;7307291;19;129746;-42
2023/05/02 02:13:18;;;;;;;;;;;;;;;22.41;55.46;99237.72;7311472;19;130584;-39
2023/05/02 02:15:46;;;;;;;;;;;;;;;22.52;55.13;99252.38;7309645;19;130265;-39
2023/05/02 02:18:13;;;;;;;;;;;;;;;22.42;55.15;99238.53;7310761;19;129051;-39
2023/05/02 02:20:41;;;;;;;;;;;;;;;22.54;54.70;99263.56;7311016;19;129244;-38
2023/05/02 02:23:07;;;;;;;;;;;;;;;22.53;54.76;99262.72;7309526;19;131641;-40
2023/05/02 02:25:33;;;;;;;;;;;;;;;22.54;55.23;99258.31;7309963;19;129784;-39
2023/05/02 02:27:59;;;;;;;;;;;;;;;21.68;51.36;99265.03;7310763;19;129488;-39
2023/05/02 02:30:24;;;;;;;;;;;;;;;21.49;51.27;99251.25;7308916;19;129098;-40
2023/05/02 02:32:50;;;;;;;;;;;;;;;21.60;51.04;99275.41;7307976;19;129312;-38
2023/05/02 02:35:15;;;;;;;;;;;;;;;21.81;54.20;99265.56;7310206;19;130345;-38
2023/05/02 02:37:46;;;;;;;;;;;;;;;22.03;54.75;99279.16;7310699;19;129396;-39
2023/05/02 02:40:28;;;;;;;;;;;;;;;22.15;54.44;99277.97;7309628;19;129803;-41
2023/05/02 02:42:56;;;;;;;;;;;;;;;22.27;55.06;99287.22;7310868;19;129051;-39
2023/05/02 02:45:43;;;;;;;;;;;;;;;22.32;55.17;99287.56;7308338;19;131557;-39
2023/05/02 02:48:32;;;;;;;;;;;;;;;22.32;55.09;99291.03;7310678;19;129303;-38
2023/05/02 02:51:12;;;;;;;;;;;;;;;22.42;54.90;99296.16;7309366;19;129750;-41
2023/05/02 02:53:50;;;;;;;;;;;;;;;22.44;55.02;99302.09;7309898;19;130170;-39
2023/05/02 02:56:19;;;;;;;;;;;;;;;22.45;55.37;99303.72;7307942;19;131042;-40
2023/05/02 02:58:54;;;;;;;;;;;;;;;22.49;55.26;99308.53;7310087;19;129402;-38
2023/05/02 03:01:20;;;;;;;;;;;;;;;22.38;54.94;99294.84;7308743;19;129116;-41
2023/05/02 03:03:47;;;;;;;;;;;;;;;22.53;54.66;99322.16;7310203;19;131048;-39
2023/05/02 03:06:12;;;;;;;;;;;;;;;22.53;55.09;99324.78;7308227;19;129623;-40
2023/05/02 03:08:39;;;;;;;;;;;;;;;22.52;55.08;99318.69;7315762;19;129055;-42
2023/05/02 03:11:04;;;;;;;;;;;;;;;22.53;55.45;99316.91;7313944;19;130606;-38
2023/05/02 03:13:29;;;;;;;;;;;;;;;21.72;51.29;99318.72;7315822;19;130436;-38
2023/05/02 03:15:56;;;;;;;;;;;;;;;21.61;51.49;99331.19;7315266;19;131688;-38
2023/05/02 03:18:21;;;;;;;;;;;;;;;21.62;51.05;99333.66;7316365;19;129206;-38
2023/05/02 03:20:46;;;;;;;;;;;;;;;21.84;53.63;99335.91;7315234;19;129118;-38
2023/05/02 03:23:11;;;;;;;;;;;;;;;22.04;54.49;99327.91;7315234;19;130086;-38
2023/05/02 03:25:37;;;;;;;;;;;;;;;22.21;54.58;99327.94;7315167;19;129761;-38
2023/05/02 03:28:03;;;;;;;;;;;;;;;22.27;54.94;99344.81;7314986;19;129191;-39
2023/05/02 03:30:28;;;;;;;;;;;;;;;22.34;54.57;99343.25;7313665;19;129500;-42
2023/05/02 03:32:53;;;;;;;;;;;;;;;22.38;54.46;99350.66;7315389;19;130281;-38
2023/05/02 03:35:18;;;;;;;;;;;;;;;22.44;55.04;99351.84;7314017;19;129606;-43
2023/05/02 03:37:44;;;;;;;;;;;;;;;22.48;54.48;99353.19;7313561;19;129725;-40
2023/05/02 03:40:09;;;;;;;;;;;;;;;22.47;55.08;99351.56;7315572;19;129645;-37
2023/05/02 03:42:40;;;;;;;;;;;;;;;22.46;55.17;99350.72;7312308;19;130077;-40
2023/05/02 03:45:06;;;;;;;;;;;;;;;22.47;55.28;99351.56;7314995;19;130565;-43
2023/05/02 03:47:31;;;;;;;;;;;;;;;22.52;54.91;99354.53;7314769;19;129029;-39
2023/05/02 03:49:58;;;;;;;;;;;;;;;22.52;55.01;99359.78;7313295;19;129059;-38
2023/05/02 03:52:23;;;;;;;;;;;;;;;22.52;55.22;99359.78;7312311;19;131190;-41
2023/05/02 03:54:48;;;;;;;;;;;;;;;22.52;54.97;99359.78;7311316;19;130343;-39
2023/05/02 03:57:14;;;;;;;;;;;;;;;22.51;55.16;99358.16;7312308;19;129380;-41
2023/05/02 03:59:41;;;;;;;;;;;;;;;21.80;51.46;99368.56;7316239;19;129546;-38
2023/05/02 04:02:07;;;;;;;;;;;;;;;21.58;51.82;99374.16;7312716;19;130380;-39
2023/05/02 04:04:32;;;;;;;;;;;;;;;21.53;50.65;99354.63;7310699;19;130973;-39
2023/05/02 04:06:57;;;;;;;;;;;;;;;21.86;53.44;99377.63;7313064;19;129407;-41
2023/05/02 04:09:24;;;;;;;;;;;;;;;22.03;54.19;99389.09;7314015;19;129950;-39
2023/05/02 04:11:49;;;;;;;;;;;;;;;22.17;54.38;99383.34;7311662;19;129190;-38
2023/05/02 04:14:14;;;;;;;;;;;;;;;22.18;54.65;99371.91;7312663;19;130354;-38
2023/05/02 04:16:40;;;;;;;;;;;;;;;22.32;54.40;99395.78;7313442;19;128847;-41
2023/05/02 04:19:05;;;;;;;;;;;;;;;22.38;55.09;99404.84;7311385;19;129655;-38
2023/05/02 04:21:30;;;;;;;;;;;;;;;22.43;54.76;99402.63;7312416;19;129605;-40
2023/05/02 04:23:56;;;;;;;;;;;;;;;22.45;54.79;99411.13;7313970;19;131011;-39
2023/05/02 04:26:21;;;;;;;;;;;;;;;22.46;54.87;99412.78;7314165;19;129252;-39
2023/05/02 04:28:46;;;;;;;;;;;;;;;22.37;54.37;99397.94;7314173;19;129610;-41
2023/05/02 04:31:11;;;;;;;;;;;;;;;22.50;54.95;99416.75;7311497;19;130552;-38
2023/05/02 04:33:37;;;;;;;;;;;;;;;22.50;54.51;99421.97;7313322;19;129758;-38
2023/05/02 04:36:02;;;;;;;;;;;;;;;22.52;54.50;99427.91;7312272;19;129564;-43
2023/05/02 04:38:27;;;;;;;;;;;;;;;22.54;55.13;99436.47;7314332;19;129011;-41
2023/05/02 04:40:53;;;;;;;;;;;;;;;22.54;54.63;99436.47;7312084;19;130173;-40
2023/05/02 04:43:18;;;;;;;;;;;;;;;22.54;55.40;99446.94;7312442;19;130332;-39
2023/05/02 04:45:43;;;;;;;;;;;;;;;21.71;51.45;99440.06;7312520;19;129125;-39
2023/05/02 04:48:09;;;;;;;;;;;;;;;21.57;51.03;99450.97;7312796;19;128817;-40
2023/05/02 04:50:34;;;;;;;;;;;;;;;21.59;51.17;99449.06;7310361;19;129432;-38
2023/05/02 04:52:59;;;;;;;;;;;;;;;21.79;53.97;99460.28;7312863;19;130197;-39
2023/05/02 04:55:25;;;;;;;;;;;;;;;21.87;54.35;99437.69;7311839;19;129059;-39
2023/05/02 04:57:50;;;;;;;;;;;;;;;22.04;54.24;99438.69;7314073;19;129889;-39
2023/05/02 05:00:16;;;;;;;;;;;;;;;22.25;54.44;99456.75;7311211;19;129033;-40
2023/05/02 05:02:42;;;;;;;;;;;;;;;22.31;54.59;99464.88;7309561;19;130363;-39
2023/05/02 05:05:07;;;;;;;;;;;;;;;22.24;54.25;99457.72;7309167;19;129786;-39
2023/05/02 05:07:32;;;;;;;;;;;;;;;22.42;54.82;99479.53;7309155;19;129410;-39
2023/05/02 05:09:57;;;;;;;;;;;;;;;22.44;54.92;99477.59;7309157;19;129613;-42
2023/05/02 05:12:23;;;;;;;;;;;;;;;22.44;54.95;99478.44;7306867;19;133418;-39
2023/05/02 05:14:49;;;;;;;;;;;;;;;22.49;55.08;99485.84;7308154;19;130759;-39
2023/05/02 05:17:14;;;;;;;;;;;;;;;22.49;55.05;99480.59;7310402;19;129608;-39
2023/05/02 05:19:40;;;;;;;;;;;;;;;22.51;54.73;99489.13;7311572;19;130145;-39
2023/05/02 05:22:05;;;;;;;;;;;;;;;22.52;54.55;99501.25;7306899;19;130205;-38
2023/05/02 05:24:30;;;;;;;;;;;;;;;22.52;55.05;99509.13;7311622;19;129009;-42
2023/05/02 05:26:55;;;;;;;;;;;;;;;22.52;55.21;99511.75;7309365;19;129749;-38
2023/05/02 05:29:21;;;;;;;;;;;;;;;22.07;51.86;99511.69;7308942;19;129030;-41
2023/05/02 05:31:46;;;;;;;;;;;;;;;21.63;51.59;99515.84;7310643;19;130398;-38
2023/05/02 05:34:12;;;;;;;;;;;;;;;21.55;51.41;99510.47;7311632;19;129068;-38
2023/05/02 05:36:38;;;;;;;;;;;;;;;21.61;51.22;99512.53;7311648;19;130053;-38
2023/05/02 05:39:04;;;;;;;;;;;;;;;21.80;53.62;99493.34;7312458;19;129397;-38
2023/05/02 05:41:29;;;;;;;;;;;;;;;22.10;54.19;99518.47;7310757;19;130308;-39
2023/05/02 05:43:55;;;;;;;;;;;;;;;22.10;54.64;99493.06;7311949;19;129019;-37
2023/05/02 05:46:20;;;;;;;;;;;;;;;22.25;54.77;99511.75;7310443;19;129283;-37
2023/05/02 05:48:45;;;;;;;;;;;;;;;22.33;54.64;99517.09;7306936;19;131460;-41
2023/05/02 05:51:10;;;;;;;;;;;;;;;22.42;54.89;99526.69;7307610;19;129368;-37
2023/05/02 05:53:36;;;;;;;;;;;;;;;22.43;54.65;99523.91;7311253;19;128957;-37
2023/05/02 05:56:11;;;;;;;;;;;;;;;22.43;55.02;99523.13;7310582;19;129098;-37
2023/05/02 05:58:37;;;;;;;;;;;;;;;22.50;54.48;99537.25;7312131;19;133163;-39
2023/05/02 06:01:02;;;;;;;;;;;;;;;22.50;54.91;99539.88;7309330;19;130247;-37
2023/05/02 06:03:27;;;;;;;;;;;;;;;22.51;54.61;99546.78;7311863;19;130626;-40
2023/05/02 06:05:52;;;;;;;;;;;;;;;22.51;54.74;99552.81;7311151;19;130610;-37
2023/05/02 06:08:18;;;;;;;;;;;;;;;22.43;54.84;99541.44;7311359;19;129896;-41
2023/05/02 06:10:43;;;;;;;;;;;;;;;22.54;54.66;99564.84;7308859;19;130802;-38
2023/05/02 06:13:08;;;;;;;;;;;;;;;22.40;55.03;99544.34;7311391;19;129302;-38
2023/05/02 06:15:34;;;;;;;;;;;;;;;21.94;51.22;99574.88;7309882;19;129611;-38
2023/05/02 06:17:59;;;;;;;;;;;;;;;21.56;51.22;99574.91;7312171;19;129596;-38
2023/05/02 06:20:25;;;;;;;;;;;;;;;21.63;50.69;99576.00;7310897;19;130872;-40
2023/05/02 06:22:50;;;;;;;;;;;;;;;21.74;52.35;99583.69;7308588;19;128757;-39
2023/05/02 06:25:15;;;;;;;;;;;;;;;21.95;53.80;99594.81;7311051;19;129461;-39
2023/05/02 06:27:40;;;;;;;;;;;;;;;22.12;54.22;99592.44;7311036;19;130123;-41
2023/05/02 06:30:06;;;;;;;;;;;;;;;22.19;54.67;99594.34;7308785;19;129675;-38
2023/05/02 06:32:31;;;;;;;;;;;;;;;22.28;54.65;99600.53;7308798;19;129055;-38
2023/05/02 06:34:57;;;;;;;;;;;;;;;22.36;54.65;99611.09;7311990;19;128879;-40
2023/05/02 06:37:22;;;;;;;;;;;;;;;22.27;54.30;99594.44;7310448;19;130503;-37
2023/05/02 06:39:48;;;;;;;;;;;;;;;22.44;54.51;99619.06;7310460;19;130566;-38
2023/05/02 06:42:13;;;;;;;;;;;;;;;22.46;54.71;99612.69;7312264;19;129010;-41
2023/05/02 06:44:38;;;;;;;;;;;;;;;22.45;54.88;99621.53;7318322;19;129041;-39
2023/05/02 06:47:04;;;;;;;;;;;;;;;22.42;54.89;99615.75;7317538;19;130073;-40
2023/05/02 06:49:29;;;;;;;;;;;;;;;22.49;54.42;99637.78;7315902;19;131076;-39
2023/05/02 06:51:55;;;;;;;;;;;;;;;22.52;54.96;99632.25;7316591;19;129573;-37
2023/05/02 06:54:20;;;;;;;;;;;;;;;22.52;54.70;99638.34;7318173;19;128909;-38
2023/05/02 06:56:46;;;;;;;;;;;;;;;22.52;55.05;99642.75;7316562;19;131304;-39
2023/05/02 06:59:11;;;;;;;;;;;;;;;22.52;54.65;99646.19;7316905;19;130477;-37
2023/05/02 07:01:36;;;;;;;;;;;;;;;21.63;51.72;99638.81;7315288;19;129040;-37
2023/05/02 07:04:05;;;;;;;;;;;;;;;21.54;51.60;99659.72;7318969;19;129553;-38
2023/05/02 07:06:30;;;;;;;;;;;;;;;21.52;50.68;99661.63;7315558;19;130910;-41
2023/05/02 07:08:56;;;;;;;;;;;;;;;21.77;53.64;99661.94;7316616;19;130247;-37
2023/05/02 07:11:23;;;;;;;;;;;;;;;22.04;54.17;99665.63;7314045;19;129396;-38
2023/05/02 07:13:48;;;;;;;;;;;;;;;22.05;54.28;99643.72;7316981;19;129348;-40
2023/05/02 07:16:13;;;;;;;;;;;;;;;22.28;54.39;99672.03;7314617;19;128996;-37
2023/05/02 07:18:39;;;;;;;;;;;;;;;22.33;54.42;99672.44;7315503;19;130446;-40
2023/05/02 07:21:04;;;;;;;;;;;;;;;22.39;54.71;99674.50;7315138;19;129273;-42
2023/05/02 07:23:30;;;;;;;;;;;;;;;22.44;54.08;99679.31;7315979;19;128914;-39
2023/05/02 07:25:55;;;;;;;;;;;;;;;22.46;54.52;99680.81;7314127;19;130233;-38
2023/05/02 07:28:20;;;;;;;;;;;;;;;22.46;54.46;99690.47;7315562;19;129651;-38
2023/05/02 07:30:45;;;;;;;;;;;;;;;22.39;54.11;99676.28;7313652;19;129244;-38
2023/05/02 07:33:11;;;;;;;;;;;;;;;22.49;54.95;99696.25;7314248;19;129078;-38
2023/05/02 07:35:36;;;;;;;;;;;;;;;22.50;54.84;99697.91;7313299;19;129277;-39
2023/05/02 07:38:01;;;;;;;;;;;;;;;22.50;54.95;99703.16;7314891;19;129404;-38
2023/05/02 07:40:27;;;;;;;;;;;;;;;22.52;54.56;99710.84;7314613;19;128900;-40
2023/05/02 07:42:52;;;;;;;;;;;;;;;22.53;54.71;99707.28;7313222;19;129416;-39
2023/05/02 07:45:17;;;;;;;;;;;;;;;22.54;54.50;99711.59;7314644;19;129846;-38
2023/05/02 07:47:44;;;;;;;;;;;;;;;21.91;51.80;99724.31;7314122;19;129127;-39
2023/05/02 07:50:09;;;;;;;;;;;;;;;21.56;51.07;99731.03;7313666;19;129350;-39
2023/05/02 07:52:35;;;;;;;;;;;;;;;21.54;50.88;99728.56;7312846;19;128837;-39
2023/05/02 07:55:00;;;;;;;;;;;;;;;21.57;51.55;99717.81;7315411;19;129134;-37
2023/05/02 07:57:25;;;;;;;;;;;;;;;21.89;53.81;99726.28;7314235;19;129603;-38
2023/05/02 07:59:50;;;;;;;;;;;;;;;22.10;54.48;99743.63;7314348;19;129602;-38
2023/05/02 08:02:18;;;;;;;;;;;;;;;22.23;54.06;99754.63;7313118;19;130084;-38
2023/05/02 08:04:44;;;;;;;;;;;;;;;22.30;54.41;99753.09;7314895;19;129335;-38
2023/05/02 08:07:09;;;;;;;;;;;;;;;22.37;54.05;99759.44;7313632;19;130266;-39
2023/05/02 08:09:34;;;;;;;;;;;;;;;22.40;54.36;99762.59;7314931;19;128867;-38
2023/05/02 08:12:02;;;;;;;;;;;;;;;22.44;54.23;99763.97;7313718;19;129006;-38
2023/05/02 08:14:27;;;;;;;;;;;;;;;22.43;54.76;99753.66;7315200;19;130606;-38
2023/05/02 08:16:53;;;;;;;;;;;;;;;22.47;54.52;99763.69;7314101;19;130670;-40
2023/05/02 08:19:18;;;;;;;;;;;;;;;22.48;54.22;99765.34;7314961;19;129616;-39
2023/05/02 08:21:43;;;;;;;;;;;;;;;22.50;54.52;99765.19;7312380;19;129560;-38
2023/05/02 08:24:08;;;;;;;;;;;;;;;22.50;54.84;99776.50;7314352;19;130541;-40
2023/05/02 08:26:33;;;;;;;;;;;;;;;22.51;54.74;99777.34;7314102;19;130290;-41
2023/05/02 08:28:59;;;;;;;;;;;;;;;22.52;54.25;99782.44;7314420;19;130379;-36
2023/05/02 08:31:24;;;;;;;;;;;;;;;22.53;54.68;99783.28;7310990;19;129035;-43
2023/05/02 08:33:49;;;;;;;;;;;;;;;21.95;51.60;99788.53;7314171;19;129428;-39
2023/05/02 08:36:16;;;;;;;;;;;;;;;21.54;51.13;99786.13;7312217;19;129483;-42
2023/05/02 08:38:41;;;;;;;;;;;;;;;21.54;50.65;99786.13;7314480;19;129105;-39
2023/05/02 08:41:14;;;;;;;;;;;;;;;21.55;51.80;99785.13;7313266;19;129686;-39
2023/05/02 08:43:39;;;;;;;;;;;;;;;21.94;53.90;99792.13;7314689;19;129659;-38
2023/05/02 08:46:08;;;;;;;;;;;;;;;22.12;54.25;99792.25;7312289;19;131018;-41
2023/05/02 08:48:35;;;;;;;;;;;;;;;22.09;54.68;99773.38;7313792;19;128632;-39
2023/05/02 08:51:01;;;;;;;;;;;;;;;22.30;54.11;99798.44;7311443;19;129609;-39
2023/05/02 08:53:27;;;;;;;;;;;;;;;22.36;54.23;99800.50;7314285;19;129182;-38
2023/05/02 08:55:52;;;;;;;;;;;;;;;22.36;54.61;99795.25;7312448;19;129439;-38
2023/05/02 08:58:17;;;;;;;;;;;;;;;22.42;54.67;99805.22;7314539;19;128988;-38
2023/05/02 09:00:44;;;;;;;;;;;;;;;22.43;54.83;99811.28;7312224;19;129193;-39
2023/05/02 09:03:35;;;;;;;;;;;;;;;22.47;54.87;99810.03;7313104;19;130117;-41
2023/05/02 09:06:11;;;;;;;;;;;;;;;22.47;54.22;99813.47;7310313;19;131219;-38
2023/05/02 09:08:37;;;;;;;;;;;;;;;22.50;54.11;99817.59;7312038;19;129364;-40
2023/05/02 09:11:03;;;;;;;;;;;;;;;22.49;54.07;99821.19;7311946;19;129977;-40
2023/05/02 09:13:38;;;;;;;;;;;;;;;22.51;54.66;99824.50;7315156;19;130633;-41
2023/05/02 09:16:05;;;;;;;;;;;;;;;22.52;54.19;99826.16;7311001;19;130294;-40
2023/05/02 09:18:34;;;;;;;;;;;;;;;22.26;52.48;99825.06;7313011;19;128980;-37
2023/05/02 09:21:00;;;;;;;;;;;;;;;21.61;51.51;99829.09;7311900;19;129181;-40
2023/05/02 09:23:42;;;;;;;;;;;;;;;21.55;51.38;99842.69;7313992;19;130374;-39
2023/05/02 09:26:15;;;;;;;;;;;;;;;21.56;50.95;99836.53;7311057;19;130422;-38
2023/05/02 09:28:50;;;;;;;;;;;;;;;21.95;54.09;99843.50;7311931;19;129333;-38
2023/05/02 09:31:20;;;;;;;;;;;;;;;22.09;54.28;99841.47;7309980;19;129141;-38
2023/05/02 09:33:45;;;;;;;;;;;;;;;22.20;54.10;99843.94;7312087;19;130214;-38
2023/05/02 09:36:13;;;;;;;;;;;;;;;22.30;54.01;99847.38;7311639;19;130226;-40
2023/05/02 09:38:38;;;;;;;;;;;;;;;22.36;54.48;99849.47;7312622;19;129301;-40
2023/05/02 09:41:04;;;;;;;;;;;;;;;22.38;54.71;99848.34;7310783;19;129056;-38
2023/05/02 09:43:32;;;;;;;;;;;;;;;22.39;54.67;99841.31;7312272;19;131114;-38
2023/05/02 09:46:05;;;;;;;;;;;;;;;22.44;54.75;99844.34;7311361;19;130405;-41
2023/05/02 09:48:32;;;;;;;;;;;;;;;22.46;54.15;99843.25;7311688;19;129860;-41
2023/05/02 09:50:57;;;;;;;;;;;;;;;22.49;54.45;99842.16;7309976;19;129003;-38
2023/05/02 09:53:26;;;;;;;;;;;;;;;22.46;54.45;99838.00;7310922;19;129540;-39
2023/05/02 09:56:02;;;;;;;;;;;;;;;22.52;54.09;99852.34;7310600;19;131387;-39
2023/05/02 09:58:27;;;;;;;;;;;;;;;22.51;54.22;99855.94;7311646;19;129090;-42
2023/05/02 10:00:53;;;;;;;;;;;;;;;22.53;54.39;99864.50;7308992;19;129072;-38
2023/05/02 10:03:18;;;;;;;;;;;;;;;22.42;54.51;99841.88;7311172;19;129527;-39
2023/05/02 10:05:44;;;;;;;;;;;;;;;21.65;51.57;99864.50;7309626;19;130839;-41
2023/05/02 10:08:10;;;;;;;;;;;;;;;21.54;51.21;99864.59;7311186;19;128884;-39
2023/05/02 10:10:36;;;;;;;;;;;;;;;21.50;50.76;99873.66;7309160;19;129046;-40
2023/05/02 10:13:05;;;;;;;;;;;;;;;21.85;53.94;99861.00;7307593;19;130944;-40
2023/05/02 10:15:31;;;;;;;;;;;;;;;22.06;54.52;99865.31;7308165;19;129658;-39
2023/05/02 10:17:57;;;;;;;;;;;;;;;22.11;54.20;99850.00;7317852;19;129048;-39
2023/05/02 10:20:28;;;;;;;;;;;;;;;22.15;54.27;99844.34;7317625;19;129628;-37
2023/05/02 10:22:55;;;;;;;;;;;;;;;22.34;53.96;99869.72;7316117;19;129320;-40
2023/05/02 10:25:20;;;;;;;;;;;;;;;22.39;54.37;99865.75;7316776;19;129214;-39
2023/05/02 10:27:46;;;;;;;;;;;;;;;22.42;54.33;99875.09;7318143;19;129085;-38
2023/05/02 10:30:12;;;;;;;;;;;;;;;22.44;54.51;99871.41;7316498;19;129009;-37
2023/05/02 10:32:37;;;;;;;;;;;;;;;22.45;54.56;99870.41;7315205;19;131267;-39
2023/05/02 10:35:03;;;;;;;;;;;;;;;22.47;54.52;99870.28;7317499;19;129041;-39
2023/05/02 10:37:32;;;;;;;;;;;;;;;22.49;54.72;99868.34;7317541;19;129528;-39
2023/05/02 10:39:57;;;;;;;;;;;;;;;22.48;54.77;99877.16;7317073;19;129604;-39
2023/05/02 10:42:23;;;;;;;;;;;;;;;22.48;54.31;99877.16;7315505;19;130432;-39
2023/05/02 10:44:49;;;;;;;;;;;;;;;22.49;54.70;99881.47;7316348;19;129214;-40
2023/05/02 10:47:22;;;;;;;;;;;;;;;22.50;54.66;99885.72;7316636;19;130141;-40
2023/05/02 10:50:00;;;;;;;;;;;;;;;22.04;51.79;99878.53;7315964;19;129420;-39
2023/05/02 10:52:27;;;;;;;;;;;;;;;21.58;51.35;99889.56;7315145;19;129302;-37
2023/05/02 10:55:12;;;;;;;;;;;;;;;21.57;51.22;99884.41;7316926;19;129325;-41
2023/05/02 10:57:57;;;;;;;;;;;;;;;21.69;53.30;99893.84;7316130;19;129529;-38
2023/05/02 11:00:23;;;;;;;;;;;;;;;21.96;54.47;99886.25;7315974;19;129658;-37
2023/05/02 11:02:50;;;;;;;;;;;;;;;22.15;54.30;99885.44;7314445;19;129975;-39
2023/05/02 11:05:16;;;;;;;;;;;;;;;22.22;54.50;99883.91;7316260;19;130418;-42
2023/05/02 11:07:41;;;;;;;;;;;;;;;22.28;54.57;99881.56;7315566;19;128958;-38
2023/05/02 11:10:09;;;;;;;;;;;;;;;22.34;54.08;99885.44;7315087;19;129745;-39
2023/05/02 11:12:45;;;;;;;;;;;;;;;22.40;54.17;99885.72;7314218;19;130983;-38
2023/05/02 11:15:11;;;;;;;;;;;;;;;22.41;54.65;99886.56;7316913;19;130505;-39
2023/05/02 11:17:55;;;;;;;;;;;;;;;22.41;54.60;99881.31;7315768;19;129082;-38
2023/05/02 11:20:20;;;;;;;;;;;;;;;22.46;54.45;99894.84;7316014;19;129203;-40
2023/05/02 11:22:45;;;;;;;;;;;;;;;22.48;54.61;99890.25;7304586;19;131031;-38
2023/05/02 11:25:27;;;;;;;;;;;;;;;22.48;54.58;99893.72;7316818;19;129479;-38
2023/05/02 11:27:53;;;;;;;;;;;;;;;22.49;54.83;99889.31;7316148;19;129921;-38
2023/05/02 11:30:35;;;;;;;;;;;;;;;22.48;54.52;99887.63;7315244;19;129073;-38
2023/05/02 11:33:03;;;;;;;;;;;;;;;22.49;54.28;99884.91;7316300;19;129537;-39
2023/05/02 11:35:31;;;;;;;;;;;;;;;22.12;51.37;99893.53;7314761;19;129587;-41
2023/05/02 11:37:56;;;;;;;;;;;;;;;21.59;50.94;99896.44;7315965;19;128957;-38
2023/05/02 11:40:21;;;;;;;;;;;;;;;21.49;51.27;99886.88;7317345;19;129338;-39
2023/05/02 11:42:47;;;;;;;;;;;;;;;21.69;51.89;99899.91;7310415;19;129551;-40
2023/05/02 11:45:12;;;;;;;;;;;;;;;21.81;53.86;99877.09;7315230;19;131464;-38
2023/05/02 11:47:38;;;;;;;;;;;;;;;22.09;53.98;99904.28;7316075;19;129160;-40
2023/05/02 11:50:03;;;;;;;;;;;;;;;22.20;54.77;99893.69;7315005;19;129319;-39
2023/05/02 11:52:29;;;;;;;;;;;;;;;22.26;54.62;99898.41;7313731;19;130675;-40
2023/05/02 11:54:55;;;;;;;;;;;;;;;22.30;54.02;99897.16;7315369;19;131083;-38
2023/05/02 11:57:21;;;;;;;;;;;;;;;22.36;54.73;99905.28;7313697;19;129106;-40
2023/05/02 11:59:50;;;;;;;;;;;;;;;22.41;54.19;99902.28;7314059;19;128956;-38
2023/05/02 12:02:15;;;;;;;;;;;;;;;22.38;54.25;99900.75;7312411;19;130218;-41
2023/05/02 12:04:42;;;;;;;;;;;;;;;22.43;54.07;99905.59;7313895;19;130399;-38
2023/05/02 12:07:07;;;;;;;;;;;;;;;22.43;53.99;99906.41;7312241;19;128975;-40
2023/05/02 12:09:32;;;;;;;;;;;;;;;22.31;54.53;99896.22;7315060;19;129861;-38
2023/05/02 12:11:58;;;;;;;;;;;;;;;22.46;54.07;99913.97;7312276;19;130152;-42
2023/05/02 12:14:27;;;;;;;;;;;;;;;22.36;54.58;99899.25;7314100;19;129690;-38
2023/05/02 12:16:52;;;;;;;;;;;;;;;22.47;54.80;99922.69;7312922;19;129081;-40
2023/05/02 12:19:18;;;;;;;;;;;;;;;22.49;54.87;99926.00;7314341;19;129331;-42
2023/05/02 12:21:43;;;;;;;;;;;;;;;21.94;51.43;99925.63;7312541;19;130221;-39
2023/05/02 12:24:09;;;;;;;;;;;;;;;21.51;51.67;99927.66;7314113;19;130190;-39
2023/05/02 12:26:35;;;;;;;;;;;;;;;21.54;50.49;99921.31;7313757;19;128771;-39
2023/05/02 12:29:01;;;;;;;;;;;;;;;21.61;51.52;99928.53;7313887;19;129672;-39
2023/05/02 12:31:27;;;;;;;;;;;;;;;21.91;54.03;99936.34;7312854;19;130224;-40
2023/05/02 12:33:56;;;;;;;;;;;;;;;22.09;54.15;99922.63;7314459;19;130282;-39